San Francisco, California
Traffic Map
Current Weather Conditions
San Francisco, California
Broken Clouds
Broken Clouds
12°
Feels Like: 12°
Wind Chill: 12° Ceiling: 20000
Heat Index: 12° Visibility: 10mi
Dew Point: Wind: 3mph
Humidity: 71% Direction: 110° (ESE)
Pressure: 30.04in Gusts: 0mph
Raw Report DataKSFO 261756Z 11003KT 10SM FEW008 BKN200 12/07 A3004 RMK AO2 SLP172 T01170067 10122 20094 53004
Traffic Incident Summary
Active as of:
Severity:
Category:
InformationThere was an issue retrieving the traffic information for this location. Please try a different location or try again shortly.
Advertisements
Track Severe Weather on mobile